Time;durP1;ratioP1;P1;durP2;ratioP2;P2;SDS_P1;SDS_P2;PMS_P1;PMS_P2;Temp;Humidity;BMP_temperature;BMP_pressure;BME280_temperature;BME280_humidity;BME280_pressure;Samples;Min_cycle;Max_cycle;Signal;HPM_P1;HPM_P2
2022/07/07 00:00:42;;;;;;;7.53;2.10;;;;;;;13.99;100.00;99041.22;5102478;28;20395;-91
2022/07/07 00:03:07;;;;;;;8.38;2.22;;;;;;;13.84;100.00;99036.25;5096132;28;20118;-91
2022/07/07 00:05:37;;;;;;;7.95;1.98;;;;;;;13.86;100.00;99023.97;5090728;28;20062;-92
2022/07/07 00:08:04;;;;;;;9.27;2.00;;;;;;;13.75;100.00;99023.28;5082673;28;20061;-92
2022/07/07 00:10:29;;;;;;;7.90;1.80;;;;;;;13.75;100.00;99052.13;5088254;28;20072;-92
2022/07/07 00:12:55;;;;;;;6.65;1.77;;;;;;;13.70;100.00;99044.34;5084584;28;20031;-93
2022/07/07 00:15:22;;;;;;;7.30;1.70;;;;;;;13.59;100.00;99026.19;5086680;28;20105;-92
2022/07/07 00:17:47;;;;;;;7.65;1.70;;;;;;;13.67;100.00;99012.97;5081016;28;20884;-92
2022/07/07 00:20:13;;;;;;;7.07;1.67;;;;;;;13.45;100.00;99021.16;5088509;28;20057;-95
2022/07/07 00:22:39;;;;;;;8.90;2.10;;;;;;;13.52;100.00;99034.19;5096071;28;20029;-96
2022/07/07 00:25:06;;;;;;;7.45;1.80;;;;;;;13.44;100.00;99027.31;5094597;28;20115;-96
2022/07/07 00:27:31;;;;;;;8.40;2.00;;;;;;;13.41;100.00;99022.09;5091396;28;20032;-96
2022/07/07 00:29:57;;;;;;;6.90;1.70;;;;;;;13.46;100.00;99041.25;5090119;28;20052;-96
2022/07/07 00:32:29;;;;;;;6.80;2.30;;;;;;;13.34;100.00;99043.19;5094260;28;20131;-95
2022/07/07 00:35:14;;;;;;;8.13;2.03;;;;;;;13.15;100.00;99061.75;5092262;28;20040;-96
2022/07/07 00:37:40;;;;;;;7.35;2.03;;;;;;;13.12;100.00;99081.03;5096140;28;20038;-96
2022/07/07 00:40:07;;;;;;;7.25;1.60;;;;;;;13.14;100.00;99086.25;5094857;28;20032;-96
2022/07/07 00:42:32;;;;;;;8.57;2.00;;;;;;;13.19;100.00;99100.13;5094956;28;20023;-95
2022/07/07 00:45:02;;;;;;;8.40;1.90;;;;;;;13.26;100.00;99093.94;5098863;28;20123;-95
2022/07/07 00:47:34;;;;;;;8.30;1.80;;;;;;;13.18;100.00;99098.41;5105806;28;20027;-96
2022/07/07 00:50:00;;;;;;;7.47;1.90;;;;;;;13.03;100.00;99102.09;5107677;28;20032;-96
2022/07/07 00:52:26;;;;;;;11.18;2.10;;;;;;;12.96;100.00;99101.31;5105720;28;20028;-96
2022/07/07 00:54:57;;;;;;;8.70;2.00;;;;;;;13.10;100.00;99084.56;5106195;28;20044;-95
2022/07/07 00:57:25;;;;;;;7.50;1.77;;;;;;;13.08;100.00;99087.19;5106684;28;20054;-96
2022/07/07 00:59:56;;;;;;;10.23;2.25;;;;;;;13.06;100.00;99083.72;5110615;28;20031;-96
2022/07/07 01:02:25;;;;;;;9.68;2.28;;;;;;;12.96;100.00;99088.22;5106734;28;20023;-96
2022/07/07 01:04:51;;;;;;;11.93;2.10;;;;;;;13.04;100.00;99121.28;5113331;28;20048;-96
2022/07/07 01:07:17;;;;;;;8.57;1.80;;;;;;;13.07;100.00;99131.69;5103370;28;20036;-96
2022/07/07 01:10:06;;;;;;;8.45;1.70;;;;;;;13.04;100.00;99143.13;5108899;28;20022;-96
2022/07/07 01:13:05;;;;;;;8.30;1.83;;;;;;;13.10;100.00;99134.31;5101913;28;20020;-96
2022/07/07 01:15:34;;;;;;;5.55;1.50;;;;;;;13.06;100.00;99124.75;5101365;28;20028;-95
2022/07/07 01:18:00;;;;;;;6.28;1.50;;;;;;;13.02;100.00;99116.06;5086768;28;20475;-96
2022/07/07 01:20:27;;;;;;;9.45;1.60;;;;;;;12.92;100.00;99110.09;5098376;28;20048;-96
2022/07/07 01:22:56;;;;;;;7.22;1.88;;;;;;;12.94;100.00;99110.94;5092721;28;20031;-96
2022/07/07 01:25:23;;;;;;;7.68;1.48;;;;;;;12.79;100.00;99121.63;5096118;28;20110;-96
2022/07/07 01:27:51;;;;;;;8.82;1.80;;;;;;;12.85;100.00;99125.91;5100689;28;20049;-96
2022/07/07 01:30:17;;;;;;;7.65;1.60;;;;;;;12.79;100.00;99116.38;5096404;28;20044;-96
2022/07/07 01:32:54;;;;;;;6.20;1.80;;;;;;;12.63;100.00;99131.38;5098977;28;20040;-96
2022/07/07 01:35:24;;;;;;;9.73;1.55;;;;;;;12.65;100.00;99108.69;5053621;22;20483;-96
2022/07/07 01:37:58;;;;;;;10.40;1.77;;;;;;;12.66;100.00;99106.94;4993919;28;20038;-96
2022/07/07 01:40:25;;;;;;;7.32;1.58;;;;;;;12.59;100.00;99106.13;4991070;28;20022;-96
2022/07/07 01:42:50;;;;;;;6.93;1.60;;;;;;;12.58;100.00;99100.03;4986153;28;20045;-96
2022/07/07 01:45:26;;;;;;;11.23;1.83;;;;;;;12.60;100.00;99107.88;4997772;28;20046;-96
2022/07/07 01:47:51;;;;;;;8.38;1.63;;;;;;;12.59;100.00;99109.59;4999901;28;20034;-96
2022/07/07 01:50:20;;;;;;;6.78;1.58;;;;;;;12.61;100.00;99126.16;4992793;28;20085;-96
2022/07/07 01:52:46;;;;;;;10.13;1.80;;;;;;;12.58;100.00;99118.38;4991656;28;20039;-96
2022/07/07 01:55:13;;;;;;;5.80;1.52;;;;;;;12.70;100.00;99142.66;5006994;28;20026;-96
2022/07/07 01:57:39;;;;;;;8.95;1.70;;;;;;;12.73;100.00;99143.47;4994832;28;20102;-96
2022/07/07 02:00:05;;;;;;;9.40;1.90;;;;;;;12.73;100.00;99158.31;4987842;28;20061;-96
2022/07/07 02:11:34;;;;;;;8.85;1.67;;;;;;;12.58;100.00;99157.59;5011757;28;20100;-96
2022/07/07 02:14:01;;;;;;;11.57;1.58;;;;;;;12.61;100.00;99154.94;5016592;28;20089;-96
2022/07/07 02:16:36;;;;;;;8.30;1.63;;;;;;;12.64;100.00;99170.59;5019150;28;20030;-96
2022/07/07 02:19:06;;;;;;;7.22;1.70;;;;;;;12.59;100.00;99177.63;5012423;28;20053;-95
2022/07/07 02:21:32;;;;;;;10.98;2.00;;;;;;;12.75;100.00;99182.72;5010223;28;20113;-95
2022/07/07 02:23:58;;;;;;;7.30;1.83;;;;;;;12.64;100.00;99196.78;5011194;28;20087;-96
2022/07/07 02:26:38;;;;;;;8.77;1.75;;;;;;;12.71;100.00;99201.97;5011623;28;20057;-96
2022/07/07 02:29:06;;;;;;;7.68;1.48;;;;;;;12.64;100.00;99202.00;5012554;28;20030;-96
2022/07/07 02:31:33;;;;;;;7.80;1.80;;;;;;;12.57;100.00;99202.97;5009156;28;20375;-96
2022/07/07 02:34:01;;;;;;;10.23;1.80;;;;;;;12.57;100.00;99189.88;5012069;28;20022;-96
2022/07/07 02:36:27;;;;;;;9.05;1.70;;;;;;;12.51;100.00;99189.06;5013798;28;20144;-95
2022/07/07 02:38:53;;;;;;;9.35;1.98;;;;;;;12.57;100.00;99199.50;5013116;28;20034;-96
2022/07/07 02:41:19;;;;;;;11.20;1.90;;;;;;;12.47;100.00;99183.03;5009721;28;20022;-96
2022/07/07 02:43:45;;;;;;;10.07;2.03;;;;;;;12.50;100.00;99203.03;5008995;28;20087;-95
2022/07/07 02:46:11;;;;;;;6.38;1.52;;;;;;;12.60;100.00;99199.44;5012073;28;20734;-95
2022/07/07 02:48:37;;;;;;;6.32;1.77;;;;;;;12.56;100.00;99216.91;5010345;28;20056;-96
2022/07/07 02:51:03;;;;;;;9.85;2.00;;;;;;;12.51;100.00;99221.34;5013073;28;20105;-96
2022/07/07 02:53:30;;;;;;;11.48;2.17;;;;;;;12.51;100.00;99231.81;5008653;28;20076;-96
2022/07/07 02:55:56;;;;;;;9.23;1.85;;;;;;;12.60;100.00;99230.84;5012133;28;20148;-94
2022/07/07 02:58:23;;;;;;;11.75;2.00;;;;;;;12.66;100.00;99229.91;5011399;28;20061;-96
2022/07/07 03:00:50;;;;;;;10.02;1.95;;;;;;;12.50;100.00;99235.31;5015083;28;20030;-96
2022/07/07 03:03:17;;;;;;;7.30;1.58;;;;;;;12.56;100.00;99235.22;5011954;28;20036;-95
2022/07/07 03:05:43;;;;;;;7.50;1.67;;;;;;;12.52;100.00;99232.66;5009353;28;20042;-96
2022/07/07 03:08:10;;;;;;;6.90;1.65;;;;;;;12.45;100.00;99245.78;5011757;28;20030;-96
2022/07/07 03:10:36;;;;;;;7.57;1.85;;;;;;;12.43;100.00;99234.47;5010145;28;20057;-96
2022/07/07 03:13:02;;;;;;;7.35;1.55;;;;;;;12.43;100.00;99244.09;5007637;28;20104;-96
2022/07/07 03:15:27;;;;;;;9.10;1.80;;;;;;;12.55;100.00;99248.34;5007043;28;20466;-96
2022/07/07 03:17:56;;;;;;;7.13;1.70;;;;;;;12.44;100.00;99236.22;5010524;28;20116;-95
2022/07/07 03:20:24;;;;;;;9.30;1.70;;;;;;;12.52;100.00;99246.59;5008504;28;20053;-96
2022/07/07 03:22:49;;;;;;;7.05;1.50;;;;;;;12.50;100.00;99252.72;5009472;28;20038;-96
2022/07/07 03:25:23;;;;;;;8.85;2.03;;;;;;;12.50;100.00;99255.34;5011733;28;20032;-96
2022/07/07 03:27:49;;;;;;;9.25;2.15;;;;;;;12.49;100.00;99249.25;5010505;28;20057;-96
2022/07/07 03:30:19;;;;;;;8.07;1.60;;;;;;;12.59;100.00;99255.28;5008456;28;20025;-96
2022/07/07 03:32:46;;;;;;;6.40;1.63;;;;;;;12.56;100.00;99266.63;5007154;28;20026;-96
2022/07/07 03:35:12;;;;;;;7.90;1.65;;;;;;;12.48;100.00;99268.44;5021315;28;20569;-96
2022/07/07 03:37:38;;;;;;;11.52;1.80;;;;;;;12.49;100.00;99270.19;5012296;28;20030;-96
2022/07/07 03:40:07;;;;;;;7.53;1.50;;;;;;;12.49;100.00;99270.19;5010154;28;20033;-96
2022/07/07 03:42:36;;;;;;;6.65;1.55;;;;;;;12.57;100.00;99267.50;5013242;28;20084;-96
2022/07/07 03:48:23;;;;;;;7.70;1.77;;;;;;;12.82;100.00;99262.91;5010195;28;20028;-96
2022/07/07 03:50:49;;;;;;;7.30;1.85;;;;;;;12.57;100.00;99254.44;5007586;28;20021;-96
2022/07/07 03:53:14;;;;;;;6.75;1.50;;;;;;;12.68;100.00;99276.13;5007964;28;20392;-96
2022/07/07 03:55:40;;;;;;;7.75;1.45;;;;;;;12.75;100.00;99277.81;5006829;28;20038;-96
2022/07/07 03:58:11;;;;;;;6.60;1.50;;;;;;;12.58;100.00;99284.94;5017192;28;20046;-96
2022/07/07 04:00:37;;;;;;;7.30;1.60;;;;;;;12.63;100.00;99281.38;5019832;28;20042;-96
2022/07/07 04:03:02;;;;;;;6.93;1.42;;;;;;;12.66;100.00;99285.72;5010614;28;20022;-96
2022/07/07 04:05:35;;;;;;;6.25;1.30;;;;;;;12.48;100.00;99283.28;5011194;28;20022;-96
2022/07/07 04:08:04;;;;;;;7.23;1.30;;;;;;;12.63;100.00;99283.16;5006594;28;20088;-96
2022/07/07 04:10:29;;;;;;;5.00;1.13;;;;;;;12.65;100.00;99276.16;5024410;28;20311;-96
2022/07/07 04:12:55;;;;;;;7.28;1.23;;;;;;;12.72;100.00;99288.31;5007342;28;20025;-96
2022/07/07 04:15:21;;;;;;;6.47;1.13;;;;;;;12.73;100.00;99287.41;5008739;28;20025;-96
2022/07/07 04:17:52;;;;;;;7.80;1.55;;;;;;;12.52;100.00;99274.53;5008823;28;20132;-96
2022/07/07 04:20:18;;;;;;;6.03;1.20;;;;;;;12.73;100.00;99291.78;5006656;28;20936;-96
2022/07/07 04:22:44;;;;;;;5.00;1.17;;;;;;;12.65;100.00;99289.25;5005914;28;20034;-96
2022/07/07 04:25:19;;;;;;;5.38;1.20;;;;;;;12.70;100.00;99286.59;5007180;28;20025;-96
2022/07/07 04:27:45;;;;;;;7.82;1.40;;;;;;;12.68;100.00;99301.41;5006867;28;20029;-96
2022/07/07 04:30:12;;;;;;;5.95;1.40;;;;;;;12.69;100.00;99303.16;5011866;28;20043;-96
2022/07/07 04:32:37;;;;;;;6.13;1.45;;;;;;;12.74;100.00;99307.47;5005386;28;20053;-96
2022/07/07 04:35:03;;;;;;;5.47;1.10;;;;;;;12.81;100.00;99314.38;5011039;28;20089;-95
2022/07/07 04:37:42;;;;;;;5.80;1.27;;;;;;;12.83;100.00;99314.34;5009630;28;20030;-96
2022/07/07 04:40:08;;;;;;;8.38;1.40;;;;;;;12.79;100.00;99308.31;5005391;28;20038;-95
2022/07/07 04:42:34;;;;;;;5.63;1.40;;;;;;;12.96;100.00;99318.59;5003715;28;20041;-96
2022/07/07 04:45:00;;;;;;;4.93;1.20;;;;;;;13.00;100.00;99318.56;5005497;28;20030;-96
2022/07/07 04:47:58;;;;;;;5.20;1.20;;;;;;;12.94;100.00;99322.13;5007768;28;20765;-96
2022/07/07 04:50:36;;;;;;;6.70;1.50;;;;;;;12.91;100.00;99336.09;5011541;28;20125;-95
2022/07/07 04:53:11;;;;;;;5.82;1.60;;;;;;;12.91;100.00;99340.47;5001924;28;20041;-96
2022/07/07 04:59:01;;;;;;;5.22;1.50;;;;;;;13.10;100.00;99343.78;5005973;28;20096;-96
2022/07/07 05:01:27;;;;;;;7.45;1.55;;;;;;;13.03;100.00;99345.59;5020934;28;20041;-96
2022/07/07 05:03:53;;;;;;;6.95;1.65;;;;;;;13.24;100.00;99352.38;5006454;28;20022;-96
2022/07/07 05:06:32;;;;;;;7.80;1.52;;;;;;;13.06;100.00;99357.81;5010519;28;20029;-96
2022/07/07 05:08:58;;;;;;;6.53;1.60;;;;;;;13.18;100.00;99356.81;5007743;28;20541;-96
2022/07/07 05:11:42;;;;;;;7.88;1.50;;;;;;;13.19;100.00;99361.16;5006942;28;20040;-95
2022/07/07 05:14:08;;;;;;;9.20;1.92;;;;;;;13.34;100.00;99358.38;5008206;28;20406;-96
2022/07/07 05:16:38;;;;;;;7.78;1.80;;;;;;;13.59;100.00;99363.38;5007896;28;20072;-96
2022/07/07 05:19:26;;;;;;;;;;;;;;;;;;;;;
2022/07/07 05:21:53;;;;;;;6.95;1.50;;;;;;;13.51;100.00;99350.38;5008439;28;20032;-96
2022/07/07 05:24:22;;;;;;;7.45;1.70;;;;;;;13.50;100.00;99348.66;5021607;28;20044;-96
2022/07/07 05:27:23;;;;;;;6.70;1.58;;;;;;;13.52;100.00;99341.63;5010445;28;20038;-96
2022/07/07 05:30:12;;;;;;;4.70;1.17;;;;;;;13.58;100.00;99349.41;5009163;28;20052;-96
2022/07/07 05:33:07;;;;;;;4.20;1.08;;;;;;;13.86;100.00;99349.06;5008428;28;20042;-96
2022/07/07 05:35:35;;;;;;;6.22;1.40;;;;;;;13.89;100.00;99349.03;4977921;28;20057;-96
2022/07/07 05:38:23;;;;;;;4.53;1.00;;;;;;;13.96;100.00;99360.31;5006305;28;20116;-96
2022/07/07 05:41:52;;;;;;;6.97;1.20;;;;;;;13.97;100.00;99355.06;5010182;28;20053;-96
2022/07/07 05:45:04;;;;;;;4.40;0.93;;;;;;;13.94;100.00;99362.94;5172900;22;20028;-95
2022/07/07 05:48:01;;;;;;;;;;;;;;;;;;;;;
2022/07/07 05:57:53;;;;;;;5.43;1.05;;;;;;;14.12;100.00;99367.06;5002960;28;20038;-96
2022/07/07 06:01:01;;;;;;;6.18;1.00;;;;;;;14.37;100.00;99376.38;5006385;28;20026;-96
2022/07/07 06:03:27;;;;;;;4.05;0.90;;;;;;;14.16;100.00;99375.78;4989069;28;20030;-96
2022/07/07 06:06:20;;;;;;;5.20;0.90;;;;;;;14.27;100.00;99386.13;4980134;28;20133;-96
2022/07/07 06:09:17;;;;;;;3.88;1.00;;;;;;;14.23;100.00;99387.06;5009444;28;20038;-96
2022/07/07 06:12:21;;;;;;;5.65;1.08;;;;;;;14.27;100.00;99396.63;4946146;29;20124;-96
2022/07/07 06:15:16;;;;;;;5.68;1.00;;;;;;;14.25;100.00;99396.66;4889057;29;20493;-96
2022/07/07 06:18:25;;;;;;;3.60;0.90;;;;;;;14.39;100.00;99416.56;4892853;29;20044;-96
2022/07/07 07:02:19;;;;;;;4.95;0.90;;;;;;;14.83;100.00;99454.47;1717795;24;20379;-95
2022/07/07 07:04:48;;;;;;;4.15;0.90;;;;;;;14.89;100.00;99454.38;4832461;29;20062;-96
2022/07/07 07:12:31;;;;;;;4.20;1.13;;;;;;;15.12;100.00;99453.13;5047108;23;20058;-96
2022/07/07 07:24:16;;;;;;;4.15;0.90;;;;;;;15.41;100.00;99472.81;550643;24;20437;-95
2022/07/07 07:26:45;;;;;;;4.22;1.00;;;;;;;15.38;100.00;99464.94;4820656;29;20070;-96
2022/07/07 07:29:17;;;;;;;4.18;0.95;;;;;;;15.45;100.00;99474.47;4820711;29;20018;-96
2022/07/07 07:31:43;;;;;;;5.25;1.00;;;;;;;15.25;100.00;99467.78;4832775;29;20034;-96
2022/07/07 07:34:08;;;;;;;6.90;1.20;;;;;;;15.11;100.00;99475.91;4816717;29;20571;-96
2022/07/07 07:36:35;;;;;;;7.82;1.20;;;;;;;15.09;100.00;99490.81;4901880;24;20055;-95
2022/07/07 07:39:00;;;;;;;3.38;0.90;;;;;;;15.30;100.00;99476.47;4822842;29;20038;-96
2022/07/07 07:41:27;;;;;;;6.63;1.20;;;;;;;15.41;100.00;99480.69;4824061;29;20077;-96
2022/07/07 07:44:09;;;;;;;6.38;1.05;;;;;;;15.61;100.00;99483.81;5323899;24;20058;-96
2022/07/07 07:46:36;;;;;;;4.75;1.00;;;;;;;15.64;100.00;99472.38;4819977;29;20623;-96
2022/07/07 07:49:06;;;;;;;6.55;0.95;;;;;;;15.81;100.00;99487.88;4831446;23;20098;-96
2022/07/07 07:51:40;;;;;;;3.97;1.00;;;;;;;15.87;100.00;99474.63;4816498;29;20022;-96
2022/07/07 07:54:12;;;;;;;2.45;0.75;;;;;;;16.08;100.00;99491.75;4824370;29;20015;-96
2022/07/07 07:56:42;;;;;;;4.63;0.98;;;;;;;15.95;100.00;99483.25;4838633;29;20128;-96
2022/07/07 07:59:09;;;;;;;4.47;0.90;;;;;;;15.90;100.00;99486.84;4829128;29;20041;-95
2022/07/07 08:01:44;;;;;;;3.08;0.73;;;;;;;16.04;100.00;99496.19;4815604;29;20030;-96
2022/07/07 08:04:18;;;;;;;5.07;0.90;;;;;;;16.10;100.00;99486.47;4834923;29;20035;-96
2022/07/07 08:06:56;;;;;;;4.65;0.90;;;;;;;15.79;100.00;99494.91;4823519;29;20050;-96
2022/07/07 08:09:21;;;;;;;3.55;0.80;;;;;;;15.84;100.00;99499.22;4817695;29;20038;-96
2022/07/07 08:11:51;;;;;;;4.35;1.00;;;;;;;15.82;100.00;99506.28;4819048;29;20451;-96
2022/07/07 08:14:25;;;;;;;4.05;0.88;;;;;;;16.07;100.00;99521.59;4823009;29;20050;-96
2022/07/07 08:16:53;;;;;;;4.45;0.93;;;;;;;16.41;100.00;99512.16;4824050;24;20084;-96
2022/07/07 08:19:19;;;;;;;4.53;1.00;;;;;;;16.24;100.00;99504.59;4820723;24;20520;-95
2022/07/07 08:21:46;;;;;;;4.40;0.90;;;;;;;16.18;100.00;99508.22;4813116;29;20047;-96
2022/07/07 08:24:13;;;;;;;5.15;1.00;;;;;;;16.25;100.00;99511.59;4810848;29;20434;-95
2022/07/07 08:26:41;;;;;;;3.08;0.90;;;;;;;16.24;100.00;99515.97;4813561;29;20110;-96
2022/07/07 08:29:06;;;;;;;3.22;0.90;;;;;;;16.29;100.00;99516.75;4827104;29;20406;-94
2022/07/07 08:31:32;;;;;;;4.32;1.00;;;;;;;16.43;100.00;99528.78;4828511;29;20493;-94
2022/07/07 08:33:58;;;;;;;5.82;1.00;;;;;;;16.58;100.00;99517.94;4831960;29;20023;-96
2022/07/07 08:36:26;;;;;;;7.15;1.05;;;;;;;16.77;100.00;99541.22;4886519;24;20075;-96
2022/07/07 08:38:51;;;;;;;3.03;0.80;;;;;;;16.52;100.00;99534.72;4781237;29;20032;-96
2022/07/07 08:41:22;;;;;;;4.25;0.85;;;;;;;16.57;100.00;99537.25;4786775;29;20096;-96
2022/07/07 08:52:33;;;;;;;4.77;0.90;;;;;;;17.00;100.00;99557.44;4964086;23;20046;-96
2022/07/07 08:55:02;;;;;;;4.75;1.05;;;;;;;17.13;100.00;99557.16;4809820;29;20290;-96
2022/07/07 08:57:59;;;;;;;4.50;0.80;;;;;;;17.13;100.00;99572.97;4820746;29;20050;-96
2022/07/07 09:00:33;;;;;;;4.75;0.90;;;;;;;16.68;100.00;99555.47;4827599;29;20023;-96
2022/07/07 09:03:19;;;;;;;5.28;0.90;;;;;;;16.85;100.00;99571.78;4826201;29;20037;-96
2022/07/07 09:05:56;;;;;;;4.72;0.93;;;;;;;16.76;100.00;99558.81;4825020;29;20161;-96
2022/07/07 09:08:40;;;;;;;3.70;1.00;;;;;;;16.97;100.00;99569.81;4823770;29;20129;-96
2022/07/07 09:11:11;;;;;;;4.30;0.80;;;;;;;16.71;100.00;99564.19;4851583;24;20046;-96
2022/07/07 09:33:24;;;;;;;3.75;0.80;;;;;;;17.06;100.00;99611.75;993173;23;21664;31
2022/07/07 09:39:07;;;;;;;4.85;0.90;;;;;;;17.25;100.00;99600.81;4838130;29;20496;-96
2022/07/07 09:41:39;;;;;;;2.85;0.77;;;;;;;17.58;100.00;99600.03;4820652;29;20030;-96
2022/07/07 09:44:05;;;;;;;4.05;0.85;;;;;;;17.48;100.00;99606.44;4828860;29;20039;-96
2022/07/07 09:46:34;;;;;;;2.60;0.77;;;;;;;18.23;100.00;99601.06;4818568;29;20032;-96
2022/07/07 09:49:12;;;;;;;3.90;0.80;;;;;;;17.98;100.00;99614.03;4840363;29;20038;-96
2022/07/07 09:52:16;;;;;;;2.38;0.50;;;;;;;18.24;100.00;99604.56;4837152;29;20045;-96
2022/07/07 09:54:49;;;;;;;4.97;0.90;;;;;;;18.23;100.00;99597.53;4833045;29;20041;-96
2022/07/07 09:57:23;;;;;;;3.45;0.80;;;;;;;18.03;100.00;99606.84;4820142;29;20038;-96
2022/07/07 09:59:50;;;;;;;3.10;0.80;;;;;;;17.72;100.00;99610.22;4813587;29;20132;-96
2022/07/07 10:02:27;;;;;;;3.30;0.82;;;;;;;17.28;100.00;99609.50;4822652;29;20029;-96
2022/07/07 10:05:07;;;;;;;3.78;0.90;;;;;;;17.64;100.00;99613.97;4820981;29;20030;-96
2022/07/07 10:07:37;;;;;;;3.17;0.77;;;;;;;17.79;100.00;99612.75;4920308;24;20045;-96
2022/07/07 10:12:53;;;;;;;3.90;1.00;;;;;;;18.41;100.00;99615.53;4947039;23;20056;-96
2022/07/07 10:21:44;;;;;;;3.95;1.02;;;;;;;19.82;100.00;99631.66;646162;23;20364;-93
2022/07/07 10:24:13;;;;;;;2.80;0.70;;;;;;;20.00;100.00;99628.41;4833300;29;20115;-96
2022/07/07 10:26:42;;;;;;;4.65;1.00;;;;;;;19.71;100.00;99635.50;4832672;29;20038;-96
2022/07/07 10:29:18;;;;;;;4.82;0.90;;;;;;;20.91;100.00;99621.69;4837531;29;20026;-96
2022/07/07 10:31:59;;;;;;;4.22;1.00;;;;;;;21.13;100.00;99625.22;4834651;29;20035;-96
2022/07/07 10:34:33;;;;;;;3.75;0.80;;;;;;;20.66;100.00;99635.81;4822912;29;20034;-96
2022/07/07 10:37:10;;;;;;;4.13;0.90;;;;;;;19.44;100.00;99639.88;4836073;29;20038;-96
2022/07/07 10:39:40;;;;;;;2.72;0.90;;;;;;;20.48;100.00;99639.97;4820304;29;20067;-96
2022/07/07 10:42:31;;;;;;;2.90;0.77;;;;;;;20.82;100.00;99646.75;4820608;29;20023;-96
2022/07/07 10:44:58;;;;;;;3.13;0.80;;;;;;;21.24;100.00;99640.72;4822707;29;20054;-96
2022/07/07 10:47:24;;;;;;;3.25;0.90;;;;;;;21.24;100.00;99655.78;4807323;29;20030;-96
2022/07/07 10:50:31;;;;;;;3.53;0.80;;;;;;;22.03;100.00;99648.19;4833484;29;20039;-95
2022/07/07 10:52:58;;;;;;;4.30;0.90;;;;;;;21.89;100.00;99647.94;4865834;23;20102;-96
2022/07/07 11:03:50;;;;;;;3.17;0.85;;;;;;;21.42;100.00;99652.41;4886177;29;20048;-96
2022/07/07 11:06:19;;;;;;;3.08;0.90;;;;;;;21.78;100.00;99653.66;4883736;29;20041;-96
2022/07/07 11:09:03;;;;;;;3.35;1.00;;;;;;;21.89;100.00;99663.84;4874426;29;20041;-96
2022/07/07 11:11:31;;;;;;;3.15;0.90;;;;;;;21.35;100.00;99661.56;4868304;29;20056;-96
2022/07/07 11:14:10;;;;;;;3.97;0.90;;;;;;;21.98;100.00;99660.84;4895916;23;20612;-96
2022/07/07 11:16:39;;;;;;;3.28;0.82;;;;;;;22.04;100.00;99668.53;4870252;29;20029;-96
2022/07/07 11:19:06;;;;;;;2.50;0.80;;;;;;;21.31;100.00;99654.63;4880649;29;20548;-95
2022/07/07 11:21:39;;;;;;;5.18;1.00;;;;;;;22.57;100.00;99656.56;4868078;29;20054;-96
2022/07/07 11:24:15;;;;;;;3.13;0.73;;;;;;;22.43;100.00;99662.47;4865169;29;20037;-96
2022/07/07 11:26:52;;;;;;;3.40;0.90;;;;;;;22.16;100.00;99665.38;4873621;29;20116;-96
2022/07/07 11:29:35;;;;;;;4.07;1.00;;;;;;;21.87;100.00;99673.69;4887274;29;20033;-96
2022/07/07 11:32:11;;;;;;;2.92;0.88;;;;;;;22.46;100.00;99673.00;4878623;29;20347;-96
2022/07/07 11:34:51;;;;;;;3.00;0.90;;;;;;;21.73;100.00;99672.47;4889101;29;20041;-96
2022/07/07 11:37:26;;;;;;;2.35;0.75;;;;;;;22.69;100.00;99671.13;4874678;29;20064;-95
2022/07/07 12:00:35;;;;;;;3.40;0.98;;;;;;;23.40;100.00;99691.84;4870835;29;20049;-96
2022/07/07 12:03:05;;;;;;;3.35;0.65;;;;;;;22.22;100.00;99695.28;4871440;29;20108;-96
2022/07/07 12:08:36;;;;;;;4.15;0.80;;;;;;;21.10;100.00;99704.06;4909974;23;20092;-96
2022/07/07 12:11:03;;;;;;;3.70;1.00;;;;;;;21.35;100.00;99685.44;4866107;29;20557;-96
2022/07/07 12:13:46;;;;;;;4.25;1.10;;;;;;;22.57;100.00;99700.91;4901194;23;20138;-96
2022/07/07 12:16:39;;;;;;;5.45;1.08;;;;;;;22.74;100.00;99697.50;4884465;29;20049;-96
2022/07/07 12:19:22;;;;;;;4.88;1.00;;;;;;;21.45;100.00;99702.72;4897154;29;20047;-96
2022/07/07 12:21:51;;;;;;;4.13;1.00;;;;;;;20.92;100.00;99702.97;4897486;29;20020;-96
2022/07/07 12:24:41;;;;;;;2.72;0.77;;;;;;;20.97;100.00;99715.13;4889467;29;20041;-96
2022/07/07 12:27:20;;;;;;;5.75;1.10;;;;;;;21.52;100.00;99702.47;4983956;23;20089;-96
2022/07/07 12:30:12;;;;;;;5.75;1.10;;;;;;;21.26;100.00;99699.03;4872265;29;20041;-96
2022/07/07 12:33:10;;;;;;;4.20;1.05;;;;;;;21.86;100.00;99707.34;4870469;29;20017;-96
2022/07/07 12:35:37;;;;;;;4.07;0.90;;;;;;;22.16;100.00;99707.88;4865355;29;20359;-96
2022/07/07 12:38:46;;;;;;;4.22;1.08;;;;;;;22.30;100.00;99694.00;4869127;29;20181;-96
2022/07/07 12:41:41;;;;;;;3.97;0.88;;;;;;;22.61;100.00;99700.69;4870303;29;20887;-96
2022/07/07 13:56:38;;;;;;;6.88;1.45;;;;;;;23.36;100.00;99719.56;4839754;29;20403;-96
2022/07/07 13:59:04;;;;;;;7.03;1.40;;;;;;;22.88;100.00;99718.16;4845209;29;20037;-96
2022/07/07 14:01:29;;;;;;;6.18;1.33;;;;;;;23.02;100.00;99721.09;4844630;29;20039;-94
2022/07/07 14:03:55;;;;;;;6.28;1.30;;;;;;;23.83;100.00;99719.09;4847828;29;20059;-96
2022/07/07 14:06:20;;;;;;;5.80;1.27;;;;;;;23.35;100.00;99739.13;4846315;29;20033;-94
2022/07/07 14:08:50;;;;;;;5.05;1.27;;;;;;;22.65;100.00;99722.69;4848286;29;20049;-95
2022/07/07 14:11:18;;;;;;;6.90;1.45;;;;;;;23.29;100.00;99728.75;4827380;29;20030;-96
2022/07/07 14:13:44;;;;;;;6.93;1.70;;;;;;;23.61;100.00;99737.06;4841831;29;20037;-96
2022/07/07 14:16:10;;;;;;;7.07;1.25;;;;;;;23.88;100.00;99737.53;4843110;29;20470;-96
2022/07/07 14:18:36;;;;;;;6.10;1.13;;;;;;;23.64;100.00;99731.56;4820312;29;20060;-96
2022/07/07 14:21:01;;;;;;;5.95;1.40;;;;;;;23.54;100.00;99723.16;4841903;29;20121;-95
2022/07/07 14:23:32;;;;;;;5.65;1.33;;;;;;;23.80;100.00;99729.91;4846851;29;20053;-96
2022/07/07 14:25:57;;;;;;;6.40;1.13;;;;;;;22.97;100.00;99726.59;4846153;29;20030;-95
2022/07/07 14:28:23;;;;;;;5.45;1.30;;;;;;;24.10;100.00;99728.50;4815223;29;20043;-96
2022/07/07 14:30:52;;;;;;;5.65;1.10;;;;;;;23.44;100.00;99720.06;4796630;29;20493;-96
2022/07/07 14:33:17;;;;;;;7.38;1.33;;;;;;;23.85;100.00;99711.03;4780211;30;20072;-96
2022/07/07 14:35:53;;;;;;;5.93;1.23;;;;;;;24.15;100.00;99721.16;4791989;29;20043;-96
2022/07/07 14:38:20;;;;;;;5.65;1.38;;;;;;;24.92;100.00;99725.22;4789647;29;20031;-96
2022/07/07 14:40:46;;;;;;;6.25;1.40;;;;;;;24.30;100.00;99727.50;4805864;29;20106;-96
2022/07/07 14:43:12;;;;;;;4.72;1.20;;;;;;;23.99;100.00;99737.91;4777694;24;20076;-96
2022/07/07 14:45:47;;;;;;;7.18;1.42;;;;;;;22.90;100.00;99732.28;4747996;30;20056;-96
2022/07/07 14:48:13;;;;;;;6.10;1.20;;;;;;;23.35;100.00;99728.47;4749615;30;20536;-96
2022/07/07 14:51:06;;;;;;;6.15;1.60;;;;;;;23.21;100.00;99731.75;4747606;30;20041;-96
2022/07/07 14:53:37;;;;;;;6.15;1.38;;;;;;;23.32;100.00;99733.94;4746808;30;20052;-96
2022/07/07 14:56:44;;;;;;;6.13;1.38;;;;;;;24.09;100.00;99732.09;4750639;30;20028;-96
2022/07/07 14:59:13;;;;;;;7.10;1.75;;;;;;;24.30;100.00;99732.84;4747182;30;20037;-96
2022/07/07 15:01:43;;;;;;;6.72;1.40;;;;;;;23.65;100.00;99730.66;4738521;30;20055;-96
2022/07/07 15:04:11;;;;;;;5.32;1.33;;;;;;;23.31;100.00;99708.25;4696483;30;20061;-96
2022/07/07 15:06:59;;;;;;;7.82;1.48;;;;;;;23.72;100.00;99710.75;4754746;30;20060;-96
2022/07/07 15:09:40;;;;;;;7.43;1.50;;;;;;;22.80;100.00;99710.53;4746725;30;20029;-96
2022/07/07 15:12:12;;;;;;;5.57;1.20;;;;;;;23.15;100.00;99716.94;4735180;30;20013;-96
2022/07/07 15:14:44;;;;;;;6.40;1.30;;;;;;;24.20;100.00;99713.78;4746569;30;20041;-96
2022/07/07 15:17:17;;;;;;;7.47;1.40;;;;;;;23.55;100.00;99706.25;4747234;30;20036;-96
2022/07/07 15:20:09;;;;;;;5.95;1.30;;;;;;;22.81;100.00;99706.91;4748050;30;20041;-96
2022/07/07 15:23:11;;;;;;;6.03;1.40;;;;;;;23.14;100.00;99714.34;4746152;30;20041;-96
2022/07/07 15:25:50;;;;;;;6.25;1.27;;;;;;;24.43;100.00;99712.63;4770342;24;20127;-95
2022/07/07 15:28:17;;;;;;;6.18;1.40;;;;;;;23.95;100.00;99703.47;4787987;29;20035;-95
2022/07/07 15:30:42;;;;;;;6.25;1.40;;;;;;;23.39;100.00;99707.91;4792791;29;20051;-96
2022/07/07 15:33:08;;;;;;;7.80;1.60;;;;;;;24.66;100.00;99710.59;4791119;29;20032;-95
2022/07/07 15:35:40;;;;;;;7.57;1.58;;;;;;;24.26;100.00;99710.81;4777504;29;20027;-95